Airfield :
LOGIN :

Register | Disclaimer

   EN    FR    IT 

 










Legend :    VFR   Marginal VFR   IFR   Intensive IFR   Very Intensive IFR
Visi :
Ceiling :
>= 8 km
>= 3000ft
5 to 8 km
1000 to 3000 ft
1500m to 5 km
500 to 1000 ft
800 to 1500m
200 to 500 ft
< 800m
< 200 ft
Symbols :   Thunderstorms  Fog  Heavy snow  Heavy precipitations  Wind > 20 kt
SIGMETs :     Misc.  Thunderstorms  Icing  Turbulence  Mountain Waves  Volcanic Ashes







- Airport Elevation : 464 ft
- IATA code : EVX
- Download approach charts


LFOE - Evreux

CURRENT METAR :
  • 182100Z AUTO 25010KT 9999 FEW016 OVC084 08/06 Q1022

EXPIRED METARs :
  • 182030Z AUTO 24010KT 9999 SCT035 BKN086 OVC150 07/05 Q1022
  • 182000Z AUTO 25009KT 9999 BKN038 OVC082 07/05 Q1022
  • 181930Z AUTO 24008KT CAVOK 07/05 Q1023
  • 181900Z AUTO 24008KT CAVOK 07/05 Q1023
  • 181830Z AUTO 24008KT 9999 FEW041 BKN076 07/05 Q1023

TAF TAF LFOE
Valid from the 18 at 15:00 until the 19 at 15:00 UTC


181400Z 1815/1915 25005KT 9999 OVC040
BECMG 1822/1824 BKN010
TEMPO 1900/1903 4000 -RA BKN006
BECMG 1905/1907 FEW020
No reported NOTAMs for that airfield.
1 SIGMET reported for the Paris FIR (LFFF) :
 
Severe icing
LFFF SIGMET 1 VALID 182100/190100 LFPW
LFFF PARIS FIR/UIR SEV ICE OBS WI N5045 E00315 - N4930 E00600 - N4915 E00515 - N5000 E00300 FL080/220 MOV SE 20KT NC=



MET'MAP, your aeronautical weather chart ! - Copyright ORBIFLY December 2007 - Disclaimer

ORBIFLY MET'MAP TEAM :

Programming & Development : Alexandra Zaïnal
Concept & Development : Baudouin d'Aumeries
Co-Development & Prog : Marc-Olivier Méhu
Technical & hardware support : Manuel Goepfert

Contact : metmap@orbifly.com




SOURCES & CREDITS :

   NOAA